Airport View

Enter AWOS ICAO identifier for current METAR.

ex. KFNL

KHRJ 011225Z AUTO 00000KT 10SM CLR 14/14 A3001 RMK AO2 T01400140

1 Oct 2020 12:32

Frequency: 119.025

Phone: 910-814-3946

Other Area AWOS: KFBG - KJNX - KPOB - KTTA

TAF KFBG 010900Z 0109/0215 VRB06KT 9999 SKC QNH2992INS BECMG 0205/0206 35009KT 9999 BKN020 QNH2994INS BECMG 0208/0209 35009KT 9999 SCT030 510302 QNH2995INS BECMG 0214/0215 35010G15KT 9999 SCT040 QNH2996INS TX26/0120Z TN12/0110Z